createdAt,value
2023-03-26T00:01:21.925Z,81.47
2023-03-26T00:03:54.168Z,81.38
2023-03-26T00:06:23.274Z,81.31
2023-03-26T00:08:51.160Z,81.34
2023-03-26T00:11:20.410Z,80.93
2023-03-26T00:13:48.418Z,80.61
2023-03-26T00:16:18.248Z,80.80
2023-03-26T00:18:46.367Z,81.02
2023-03-26T00:21:16.272Z,81.69
2023-03-26T00:23:44.604Z,81.13
2023-03-26T00:26:11.453Z,80.67
2023-03-26T00:28:40.716Z,80.46
2023-03-26T00:31:10.134Z,80.42
2023-03-26T00:33:38.749Z,80.75
2023-03-26T00:38:39.277Z,80.67
2023-03-26T00:41:17.704Z,80.94
2023-03-26T00:43:49.019Z,81.02
2023-03-26T00:46:17.717Z,81.27
2023-03-26T00:48:46.142Z,81.10
2023-03-26T00:51:16.761Z,81.21
2023-03-26T00:53:45.773Z,81.60
2023-03-26T00:56:13.080Z,81.31
2023-03-26T00:58:40.366Z,81.21
2023-03-26T01:01:09.927Z,82.03
2023-03-26T01:03:38.911Z,81.92
2023-03-26T01:06:09.706Z,81.95
2023-03-26T01:08:40.922Z,82.01
2023-03-26T01:11:14.363Z,82.00
2023-03-26T01:13:48.812Z,82.43
2023-03-26T01:16:25.292Z,82.40
2023-03-26T01:18:53.447Z,82.53
2023-03-26T01:21:30.495Z,82.81
2023-03-26T01:26:57.582Z,83.70
2023-03-26T01:29:43.291Z,84.96
2023-03-26T01:32:35.167Z,84.74
2023-03-26T01:35:09.922Z,85.63
2023-03-26T01:37:58.870Z,85.89
2023-03-26T01:40:47.313Z,85.90
2023-03-26T01:43:33.732Z,86.28
2023-03-26T01:46:05.581Z,86.51
2023-03-26T01:48:36.977Z,86.85
2023-03-26T01:51:05.813Z,87.53
2023-03-26T01:53:35.676Z,87.86
2023-03-26T01:56:13.352Z,88.13
2023-03-26T01:59:09.824Z,88.18
2023-03-26T02:01:46.255Z,88.48
2023-03-26T02:04:25.290Z,88.32
2023-03-26T02:07:02.790Z,89.04
2023-03-26T02:09:36.448Z,88.03
2023-03-26T02:12:05.996Z,88.82
2023-03-26T02:14:33.267Z,88.53
2023-03-26T02:17:00.366Z,88.70
2023-03-26T02:19:27.715Z,89.13
2023-03-26T02:22:00.057Z,89.08
2023-03-26T02:24:27.732Z,89.22
2023-03-26T02:26:54.691Z,89.18
2023-03-26T02:29:22.586Z,88.72
2023-03-26T02:31:49.727Z,88.77
2023-03-26T02:34:16.981Z,89.28
2023-03-26T02:36:43.980Z,89.77
2023-03-26T02:39:11.680Z,89.72
2023-03-26T02:41:39.043Z,90.35
2023-03-26T02:44:06.485Z,90.22
2023-03-26T02:46:34.152Z,89.96
2023-03-26T02:49:01.308Z,89.53
2023-03-26T02:51:29.117Z,89.63
2023-03-26T02:53:56.023Z,90.96
2023-03-26T02:56:22.930Z,90.66
2023-03-26T02:58:49.710Z,91.53
2023-03-26T03:01:18.650Z,91.16
2023-03-26T03:03:47.707Z,90.70
2023-03-26T03:06:17.575Z,91.65
2023-03-26T03:08:46.348Z,91.90
2023-03-26T03:11:18.866Z,92.79
2023-03-26T03:13:46.400Z,91.61
2023-03-26T03:16:13.280Z,91.33
2023-03-26T03:18:40.312Z,91.15
2023-03-26T03:21:07.149Z,91.60
2023-03-26T03:23:34.011Z,90.77
2023-03-26T03:26:00.825Z,91.22
2023-03-26T03:28:27.811Z,91.44
2023-03-26T03:30:57.864Z,91.40
2023-03-26T03:33:24.743Z,91.11
2023-03-26T03:35:51.917Z,91.03
2023-03-26T03:38:19.472Z,91.92
2023-03-26T03:40:46.419Z,92.78
2023-03-26T03:43:13.278Z,92.47
2023-03-26T03:45:40.128Z,93.38
2023-03-26T03:48:07.043Z,93.52
2023-03-26T03:50:35.800Z,93.92
2023-03-26T03:53:03.236Z,94.21
2023-03-26T03:55:30.253Z,93.81
2023-03-26T03:57:58.604Z,93.26
2023-03-26T04:00:25.705Z,94.80
2023-03-26T04:02:54.831Z,93.65
2023-03-26T04:05:22.080Z,93.96
2023-03-26T04:07:48.980Z,93.76
2023-03-26T04:10:16.475Z,94.85
2023-03-26T04:12:43.454Z,94.92
2023-03-26T04:15:10.416Z,94.57
2023-03-26T04:17:43.087Z,95.21
2023-03-26T04:20:14.997Z,95.46
2023-03-26T04:22:43.757Z,94.52
2023-03-26T04:25:12.743Z,94.13
2023-03-26T04:27:41.914Z,93.91
2023-03-26T04:30:10.769Z,94.13
2023-03-26T04:32:38.971Z,94.92
2023-03-26T04:35:07.508Z,93.83
2023-03-26T04:37:40.777Z,94.46
2023-03-26T04:40:10.511Z,93.67
2023-03-26T04:42:42.397Z,93.53
2023-03-26T04:45:09.214Z,93.42
2023-03-26T04:47:37.312Z,93.36
2023-03-26T04:52:34.775Z,93.48
2023-03-26T04:55:01.575Z,93.49
2023-03-26T04:57:39.708Z,94.09
2023-03-26T05:02:34.480Z,93.04
2023-03-26T05:05:03.189Z,92.79
2023-03-26T05:07:30.051Z,92.27
2023-03-26T05:09:57.800Z,92.08
2023-03-26T05:12:24.804Z,92.54
2023-03-26T05:14:51.548Z,92.71
2023-03-26T05:17:19.487Z,93.39
2023-03-26T05:19:47.378Z,93.02
2023-03-26T05:22:14.629Z,92.72
2023-03-26T05:24:41.456Z,93.54
2023-03-26T05:29:34.757Z,94.16
2023-03-26T05:32:01.692Z,94.46
2023-03-26T05:34:28.799Z,94.80
2023-03-26T05:36:55.662Z,94.81
2023-03-26T05:39:26.487Z,94.89
2023-03-26T05:41:53.852Z,94.80
2023-03-26T05:44:20.593Z,94.45
2023-03-26T05:46:48.007Z,94.48
2023-03-26T05:49:15.078Z,94.33
2023-03-26T05:51:41.846Z,94.37
2023-03-26T05:54:09.999Z,94.05
2023-03-26T05:56:36.950Z,94.56
2023-03-26T05:59:03.979Z,94.41
2023-03-26T06:01:30.835Z,93.76
2023-03-26T06:03:57.683Z,93.93
2023-03-26T06:06:24.465Z,94.08
2023-03-26T06:09:01.928Z,93.75
2023-03-26T06:11:32.125Z,93.01
2023-03-26T06:13:59.765Z,92.60
2023-03-26T06:16:27.940Z,91.97
2023-03-26T06:18:56.893Z,91.98
2023-03-26T06:21:26.125Z,91.49
2023-03-26T06:23:53.899Z,91.57
2023-03-26T06:26:22.601Z,91.29
2023-03-26T06:28:49.865Z,91.16
2023-03-26T06:31:17.608Z,90.60
2023-03-26T06:33:44.440Z,90.62
2023-03-26T06:36:11.459Z,90.62
2023-03-26T06:38:38.329Z,90.89
2023-03-26T06:41:07.020Z,90.45
2023-03-26T06:43:34.110Z,89.75
2023-03-26T06:46:01.892Z,89.33
2023-03-26T06:48:29.131Z,88.92
2023-03-26T06:50:56.104Z,89.67
2023-03-26T06:53:23.083Z,89.83
2023-03-26T06:55:50.075Z,89.91
2023-03-26T06:58:20.736Z,90.07
2023-03-26T07:00:47.585Z,88.92
2023-03-26T07:03:15.077Z,88.47
2023-03-26T07:05:50.797Z,87.94
2023-03-26T07:08:19.792Z,88.40
2023-03-26T07:10:47.173Z,87.95
2023-03-26T07:13:14.490Z,87.33
2023-03-26T07:15:41.599Z,86.91
2023-03-26T07:20:39.119Z,86.83
2023-03-26T07:23:06.407Z,86.54
2023-03-26T07:25:33.445Z,85.69
2023-03-26T07:28:10.044Z,85.86
2023-03-26T07:31:03.047Z,85.85
2023-03-26T07:33:54.046Z,86.15
2023-03-26T07:36:36.317Z,86.33
2023-03-26T07:39:10.038Z,85.69
2023-03-26T07:41:47.763Z,86.11
2023-03-26T07:44:35.948Z,85.23
2023-03-26T07:47:10.050Z,85.45
2023-03-26T07:49:38.531Z,85.84
2023-03-26T07:52:05.579Z,86.44
2023-03-26T07:54:32.808Z,87.14
2023-03-26T07:57:05.274Z,87.70
2023-03-26T07:59:43.075Z,89.65
2023-03-26T08:02:48.254Z,90.29
2023-03-26T08:05:26.401Z,92.10
2023-03-26T08:10:35.692Z,94.19
2023-03-26T08:13:09.056Z,97.14
2023-03-26T08:16:00.766Z,95.98
2023-03-26T08:18:35.476Z,96.39
2023-03-26T08:21:10.112Z,97.64
2023-03-26T08:24:01.120Z,98.94
2023-03-26T08:26:52.788Z,99.42
2023-03-26T08:29:35.929Z,98.83
2023-03-26T08:34:38.408Z,98.60
2023-03-26T08:37:05.158Z,98.51
2023-03-26T08:39:32.710Z,98.85
2023-03-26T08:42:09.061Z,100.00
2023-03-26T08:44:38.541Z,100.00
2023-03-26T08:47:09.118Z,100.00
2023-03-26T08:50:02.929Z,100.00
2023-03-26T08:52:35.758Z,100.00
2023-03-26T08:55:10.480Z,100.00
2023-03-26T08:58:03.151Z,100.00
2023-03-26T09:01:01.511Z,100.00
2023-03-26T09:03:37.479Z,100.00
2023-03-26T09:06:10.105Z,100.00
2023-03-26T09:08:54.292Z,100.00
2023-03-26T09:12:10.123Z,100.00
2023-03-26T09:14:45.768Z,100.00
2023-03-26T09:17:24.879Z,100.00
2023-03-26T09:20:10.097Z,100.00
2023-03-26T09:22:55.397Z,100.00
2023-03-26T09:25:43.322Z,100.00
2023-03-26T09:28:40.121Z,100.00
2023-03-26T09:31:10.164Z,100.00
2023-03-26T09:34:00.991Z,100.00
2023-03-26T09:37:03.043Z,100.00
2023-03-26T09:39:51.315Z,100.00
2023-03-26T09:42:38.317Z,100.00
2023-03-26T09:45:10.780Z,100.00
2023-03-26T09:47:44.916Z,100.00
2023-03-26T09:50:35.935Z,100.00
2023-03-26T09:53:09.176Z,100.00
2023-03-26T09:55:56.869Z,100.00
2023-03-26T09:58:39.058Z,100.00
2023-03-26T10:01:11.284Z,100.00
2023-03-26T10:04:06.295Z,100.00
2023-03-26T10:07:04.372Z,99.25
2023-03-26T10:09:37.670Z,98.05
2023-03-26T10:12:10.057Z,100.00
2023-03-26T10:14:55.179Z,99.90
2023-03-26T10:17:47.043Z,99.10
2023-03-26T10:20:34.014Z,97.92
2023-03-26T10:23:10.053Z,99.24
2023-03-26T10:26:01.767Z,100.00
2023-03-26T10:29:00.497Z,99.07
2023-03-26T10:31:37.248Z,97.93
2023-03-26T10:34:09.109Z,98.92
2023-03-26T10:36:54.983Z,95.00
2023-03-26T10:39:37.636Z,100.00
2023-03-26T10:42:10.163Z,92.20
2023-03-26T10:44:36.908Z,92.49
2023-03-26T10:49:52.571Z,95.29
2023-03-26T10:52:25.635Z,94.04
2023-03-26T10:55:03.038Z,95.07
2023-03-26T10:57:41.403Z,96.75
2023-03-26T11:00:10.134Z,96.98
2023-03-26T11:02:47.287Z,98.65
2023-03-26T11:05:43.356Z,96.23
2023-03-26T11:08:20.351Z,97.80
2023-03-26T11:11:10.142Z,100.00
2023-03-26T11:14:10.101Z,96.21
2023-03-26T11:16:58.851Z,90.54
2023-03-26T11:19:37.390Z,90.47
2023-03-26T11:22:10.130Z,87.42
2023-03-26T11:24:56.404Z,91.12
2023-03-26T11:27:53.162Z,89.31
2023-03-26T11:30:40.489Z,83.85
2023-03-26T11:33:10.162Z,86.38
2023-03-26T11:35:48.223Z,79.24
2023-03-26T11:38:37.628Z,76.40
2023-03-26T11:41:10.135Z,71.90
2023-03-26T11:43:37.733Z,70.79
2023-03-26T11:46:10.286Z,71.51
2023-03-26T11:49:10.244Z,71.51
2023-03-26T11:51:42.483Z,72.59
2023-03-26T11:54:11.152Z,71.46
2023-03-26T11:57:04.409Z,72.54
2023-03-26T11:59:55.632Z,77.08
2023-03-26T12:02:38.418Z,74.86
2023-03-26T12:05:09.210Z,70.61
2023-03-26T12:07:35.991Z,71.94
2023-03-26T12:10:17.830Z,69.91
2023-03-26T12:12:40.474Z,68.85
2023-03-26T12:15:09.223Z,65.81
2023-03-26T12:17:42.614Z,66.98
2023-03-26T12:20:09.265Z,67.97
2023-03-26T12:22:38.664Z,65.43
2023-03-26T12:25:10.122Z,67.74
2023-03-26T12:27:38.237Z,72.15
2023-03-26T12:30:09.188Z,70.21
2023-03-26T12:32:46.355Z,70.60
2023-03-26T12:35:28.109Z,71.56
2023-03-26T12:38:10.170Z,72.20
2023-03-26T12:40:37.831Z,68.69
2023-03-26T12:44:47.213Z,68.39
2023-03-26T12:46:58.925Z,70.37
2023-03-26T12:48:35.750Z,61.71
2023-03-26T12:51:10.150Z,58.88
2023-03-26T12:54:05.055Z,60.25
2023-03-26T12:56:43.551Z,58.03
2023-03-26T12:59:11.970Z,55.06
2023-03-26T13:01:53.254Z,57.10
2023-03-26T13:10:42.265Z,50.50
2023-03-26T13:13:10.559Z,49.42
2023-03-26T13:15:52.397Z,60.07
2023-03-26T13:18:44.572Z,57.66
2023-03-26T13:21:19.874Z,57.75
2023-03-26T13:24:10.216Z,57.19
2023-03-26T13:27:02.239Z,58.86
2023-03-26T13:29:42.607Z,57.29
2023-03-26T13:32:09.247Z,57.72
2023-03-26T13:37:56.488Z,57.41
2023-03-26T13:40:29.374Z,59.18
2023-03-26T13:43:10.154Z,62.98
2023-03-26T13:45:39.752Z,65.16
2023-03-26T13:48:09.224Z,74.69
2023-03-26T13:50:41.116Z,82.02
2023-03-26T13:53:09.248Z,86.01
2023-03-26T13:55:42.730Z,78.67
2023-03-26T13:58:34.817Z,75.14
2023-03-26T14:01:10.325Z,69.73
2023-03-26T14:04:03.124Z,64.69
2023-03-26T14:06:42.676Z,61.10
2023-03-26T14:09:09.321Z,58.69
2023-03-26T14:11:44.593Z,54.99
2023-03-26T14:14:18.407Z,54.00
2023-03-26T14:16:54.161Z,53.17
2023-03-26T14:19:58.083Z,52.22
2023-03-26T14:22:36.911Z,51.00
2023-03-26T14:25:10.294Z,49.53
2023-03-26T14:27:58.206Z,46.00
2023-03-26T14:30:28.263Z,45.54
2023-03-26T14:33:10.348Z,43.93
2023-03-26T14:36:02.785Z,48.50
2023-03-26T14:38:33.996Z,50.73
2023-03-26T14:41:10.726Z,53.42
2023-03-26T14:43:58.666Z,54.42
2023-03-26T14:47:02.353Z,54.19
2023-03-26T14:49:53.788Z,54.62
2023-03-26T14:53:00.932Z,62.45
2023-03-26T14:55:49.920Z,78.35
2023-03-26T14:58:42.564Z,69.49
2023-03-26T15:01:10.323Z,70.78
2023-03-26T15:04:10.225Z,76.27
2023-03-26T15:07:11.070Z,75.00
2023-03-26T15:09:44.186Z,76.57
2023-03-26T15:12:36.524Z,72.21
2023-03-26T15:15:11.342Z,63.60
2023-03-26T15:17:55.190Z,61.11
2023-03-26T15:20:40.873Z,63.71
2023-03-26T15:23:10.541Z,64.03
2023-03-26T15:25:56.046Z,65.72
2023-03-26T15:28:48.050Z,68.74
2023-03-26T15:31:37.455Z,65.65
2023-03-26T15:34:10.214Z,69.99
2023-03-26T15:37:11.002Z,67.66
2023-03-26T15:39:59.571Z,67.49
2023-03-26T15:42:52.421Z,67.17
2023-03-26T15:45:26.870Z,67.77
2023-03-26T15:48:01.298Z,66.18
2023-03-26T15:50:40.273Z,65.76
2023-03-26T15:53:09.306Z,64.79
2023-03-26T15:55:46.137Z,63.65
2023-03-26T15:58:24.881Z,64.76
2023-03-26T16:01:10.378Z,60.35
2023-03-26T16:03:48.582Z,61.99
2023-03-26T16:06:28.539Z,60.48
2023-03-26T16:11:55.515Z,64.19
2023-03-26T16:14:36.346Z,64.68
2023-03-26T16:17:06.687Z,64.99
2023-03-26T16:19:36.598Z,62.52
2023-03-26T16:22:10.304Z,61.74
2023-03-26T16:24:41.285Z,63.07
2023-03-26T16:27:10.876Z,56.00
2023-03-26T16:30:09.324Z,56.08
2023-03-26T16:32:48.284Z,56.84
2023-03-26T16:35:15.051Z,58.90
2023-03-26T16:38:10.800Z,59.72
2023-03-26T16:40:59.973Z,60.80
2023-03-26T16:43:51.063Z,61.70
2023-03-26T16:46:23.906Z,62.78
2023-03-26T16:48:55.287Z,64.04
2023-03-26T16:51:55.821Z,65.03
2023-03-26T16:54:47.982Z,65.12
2023-03-26T16:57:40.012Z,66.26
2023-03-26T17:00:09.866Z,65.99
2023-03-26T17:02:57.015Z,66.94
2023-03-26T17:05:34.433Z,67.25
2023-03-26T17:08:10.338Z,68.10
2023-03-26T17:11:03.336Z,68.54
2023-03-26T17:14:03.803Z,68.90
2023-03-26T17:16:50.566Z,69.53
2023-03-26T17:19:32.576Z,70.18
2023-03-26T17:24:49.474Z,70.85
2023-03-26T17:27:28.158Z,71.12
2023-03-26T17:30:09.364Z,71.69
2023-03-26T17:33:10.360Z,72.09
2023-03-26T17:35:41.268Z,72.59
2023-03-26T17:38:10.485Z,72.85
2023-03-26T17:40:46.972Z,73.90
2023-03-26T17:43:59.215Z,74.02
2023-03-26T17:46:43.022Z,73.75
2023-03-26T17:49:17.448Z,74.08
2023-03-26T17:51:58.122Z,74.32
2023-03-26T17:54:39.568Z,73.63
2023-03-26T17:57:09.445Z,79.67
2023-03-26T17:59:39.202Z,82.19
2023-03-26T18:02:10.595Z,84.88
2023-03-26T18:04:44.247Z,83.67
2023-03-26T18:07:29.654Z,83.36
2023-03-26T18:10:10.811Z,82.48
2023-03-26T18:12:44.142Z,83.61
2023-03-26T18:15:25.804Z,83.71
2023-03-26T18:18:02.459Z,84.31
2023-03-26T18:20:29.634Z,85.46
2023-03-26T18:22:57.619Z,84.90
2023-03-26T18:25:32.853Z,84.85
2023-03-26T18:28:02.223Z,84.89
2023-03-26T18:30:29.624Z,84.93
2023-03-26T18:33:10.422Z,84.58
2023-03-26T18:35:53.359Z,85.88
2023-03-26T18:38:35.974Z,86.11
2023-03-26T18:41:10.463Z,86.83
2023-03-26T18:43:44.024Z,87.32
2023-03-26T18:46:13.930Z,88.06
2023-03-26T18:48:40.984Z,88.73
2023-03-26T18:53:39.914Z,89.04
2023-03-26T18:56:09.604Z,89.18
2023-03-26T18:58:39.808Z,90.04
2023-03-26T19:01:20.086Z,90.29
2023-03-26T19:03:51.228Z,91.14
2023-03-26T19:06:21.222Z,91.92
2023-03-26T19:08:48.661Z,93.07
2023-03-26T19:11:17.581Z,92.34
2023-03-26T19:13:49.950Z,92.49
2023-03-26T19:16:24.610Z,92.40
2023-03-26T19:18:52.542Z,93.88
2023-03-26T19:21:26.065Z,94.22
2023-03-26T19:23:55.192Z,93.36
2023-03-26T19:26:22.519Z,92.48
2023-03-26T19:28:53.624Z,91.25
2023-03-26T19:31:42.707Z,91.74
2023-03-26T19:34:10.445Z,92.21
2023-03-26T19:37:01.208Z,93.14
2023-03-26T19:39:41.820Z,92.34
2023-03-26T19:42:09.469Z,93.91
2023-03-26T19:44:39.990Z,92.54
2023-03-26T19:47:10.382Z,91.64
2023-03-26T19:49:53.260Z,92.33
2023-03-26T19:52:25.774Z,91.31
2023-03-26T19:55:01.717Z,90.66
2023-03-26T19:57:33.325Z,90.08
2023-03-26T20:00:00.623Z,90.21
2023-03-26T20:02:27.790Z,90.06
2023-03-26T20:04:54.716Z,90.29
2023-03-26T20:07:35.756Z,90.14
2023-03-26T20:10:06.589Z,89.42
2023-03-26T20:12:33.517Z,88.93
2023-03-26T20:15:02.189Z,88.42
2023-03-26T20:17:31.258Z,87.86
2023-03-26T20:19:58.261Z,87.43
2023-03-26T20:22:27.065Z,87.32
2023-03-26T20:24:54.939Z,87.64
2023-03-26T20:27:22.687Z,87.17
2023-03-26T20:29:49.854Z,86.38
2023-03-26T20:32:26.527Z,86.24
2023-03-26T20:34:54.388Z,87.22
2023-03-26T20:37:21.144Z,86.73
2023-03-26T20:39:47.970Z,86.58
2023-03-26T20:42:15.985Z,86.75
2023-03-26T20:44:43.365Z,86.38
2023-03-26T20:47:11.808Z,86.04
2023-03-26T20:49:39.216Z,86.45
2023-03-26T20:52:06.379Z,86.34
2023-03-26T20:54:33.416Z,87.17
2023-03-26T20:57:00.485Z,87.26
2023-03-26T20:59:28.401Z,87.18
2023-03-26T21:01:57.514Z,87.81
2023-03-26T21:04:25.181Z,87.85
2023-03-26T21:06:55.301Z,87.93
2023-03-26T21:09:34.643Z,87.80
2023-03-26T21:12:11.472Z,87.40
2023-03-26T21:14:44.745Z,88.51
2023-03-26T21:17:18.049Z,88.32
2023-03-26T21:19:46.181Z,88.37
2023-03-26T21:22:20.038Z,88.88
2023-03-26T21:25:06.197Z,88.74
2023-03-26T21:28:03.756Z,88.99
2023-03-26T21:30:30.988Z,91.42
2023-03-26T21:32:57.875Z,94.00
2023-03-26T21:35:25.114Z,94.94
2023-03-26T21:37:52.662Z,95.57
2023-03-26T21:40:23.620Z,95.71
2023-03-26T21:42:52.568Z,96.95
2023-03-26T21:45:20.117Z,97.50
2023-03-26T21:47:47.323Z,98.16
2023-03-26T21:50:19.684Z,98.11
2023-03-26T21:52:47.338Z,98.45
2023-03-26T21:55:24.606Z,98.66
2023-03-26T21:58:12.242Z,99.23
2023-03-26T22:00:59.253Z,99.54
2023-03-26T22:03:34.826Z,99.57
2023-03-26T22:06:10.443Z,99.43
2023-03-26T22:08:39.312Z,99.44
2023-03-26T22:11:07.399Z,98.97
2023-03-26T22:13:39.064Z,99.25
2023-03-26T22:18:34.990Z,99.02
2023-03-26T22:21:02.267Z,99.67
2023-03-26T22:23:34.501Z,99.96
2023-03-26T22:26:01.401Z,98.84
2023-03-26T22:28:28.172Z,97.82
2023-03-26T22:30:55.317Z,96.93
2023-03-26T22:33:22.339Z,97.03
2023-03-26T22:35:49.134Z,97.29
2023-03-26T22:38:17.296Z,98.08
2023-03-26T22:40:44.415Z,98.53
2023-03-26T22:43:11.593Z,99.82
2023-03-26T22:45:38.396Z,100.00
2023-03-26T22:48:05.260Z,100.00
2023-03-26T22:50:34.165Z,100.00
2023-03-26T22:53:01.335Z,100.00
2023-03-26T22:55:29.981Z,100.00
2023-03-26T22:57:57.699Z,100.00
2023-03-26T23:00:26.793Z,99.65
2023-03-26T23:02:56.088Z,96.38
2023-03-26T23:05:23.054Z,95.84
2023-03-26T23:07:49.781Z,95.53
2023-03-26T23:10:16.672Z,95.81
2023-03-26T23:12:43.524Z,96.57
2023-03-26T23:15:10.860Z,97.13
2023-03-26T23:17:38.637Z,96.51
2023-03-26T23:20:10.474Z,94.13
2023-03-26T23:22:37.450Z,93.12
2023-03-26T23:25:04.343Z,93.58
2023-03-26T23:27:31.391Z,93.83
2023-03-26T23:29:58.482Z,94.79
2023-03-26T23:32:25.429Z,95.85
2023-03-26T23:34:52.842Z,95.69
2023-03-26T23:37:23.598Z,94.66
2023-03-26T23:39:52.561Z,94.68
2023-03-26T23:42:29.039Z,95.45
2023-03-26T23:44:59.525Z,95.32
2023-03-26T23:47:27.311Z,95.37
2023-03-26T23:49:54.069Z,94.64
2023-03-26T23:52:21.018Z,93.94
2023-03-26T23:54:47.731Z,95.50
2023-03-26T23:57:14.660Z,95.68
2023-03-26T23:59:41.720Z,94.67
